메인 페이지
METAR-TAF:

METAR-TAF

공항 :

토오쿄 양용비행장, 일본

위도: 35-38N, 경도: 139-51E, 고도: 5m

현재 날씨관측

예보는 57분 전, 04:00시(UTC)에 발표되었습니다.
서북서6kt풍과 북서풍을 오가는
온도 18°C
습도 94%
기압 998 hPa
시정: 7000m
고도 500ft 상공 구름 조금
고도 1000ft 상공 구름 보통
고도 2000ft 상공 구름 많음
약한소나기

METAR: RJTI 250400Z 29006KT 190V320 7000 -SHRA FEW005 SCT010 BKN020 18/17 Q0998

시각: 13:57 (04:57 UTC)


TAF: 누락

4,000개 이상의 공항 관측 자료 및 예보 (METAR 및 TAF 보고).

지도상에서 검색 가능한 기상관측소가 노란 점과 빨간 점으로 표시되어 있습니다.

기상관측소 명을 보려면 표시 위로 마우스를 이동하세요.

날씨 관측과 예보를 보려면 클릭하세요.

지도 변경 : 확대하려면 엑스 표시가 있는 녹색 버튼, 축소하려면 빼기 표시가 있는 녹색 버튼, 다음 페이지의 지도를 보려면 녹색 화살표를 클릭하세요.


METAR-TAF: